sensor_id;sensor_type;location;lat;lon;timestamp;temperature;humidity
28773;DHT22;15925;51.222;5.678;2023-08-07T00:00:42;13.80;99.90
28773;DHT22;15925;51.222;5.678;2023-08-07T00:03:07;13.80;99.90
28773;DHT22;15925;51.222;5.678;2023-08-07T00:05:33;13.80;99.90
28773;DHT22;15925;51.222;5.678;2023-08-07T00:07:59;13.80;99.90
28773;DHT22;15925;51.222;5.678;2023-08-07T00:10:25;13.80;99.90
28773;DHT22;15925;51.222;5.678;2023-08-07T00:12:51;13.80;99.90
28773;DHT22;15925;51.222;5.678;2023-08-07T00:15:17;13.80;99.90
28773;DHT22;15925;51.222;5.678;2023-08-07T00:17:42;13.80;99.90
28773;DHT22;15925;51.222;5.678;2023-08-07T00:20:08;13.80;99.90
28773;DHT22;15925;51.222;5.678;2023-08-07T00:22:34;13.80;99.90
28773;DHT22;15925;51.222;5.678;2023-08-07T00:25:00;13.90;99.90
28773;DHT22;15925;51.222;5.678;2023-08-07T00:27:26;13.90;99.90
28773;DHT22;15925;51.222;5.678;2023-08-07T00:29:52;13.80;99.90
28773;DHT22;15925;51.222;5.678;2023-08-07T00:32:17;13.80;99.90
28773;DHT22;15925;51.222;5.678;2023-08-07T00:34:43;13.80;99.90
28773;DHT22;15925;51.222;5.678;2023-08-07T00:37:09;13.80;99.90
28773;DHT22;15925;51.222;5.678;2023-08-07T00:39:35;13.80;99.90
28773;DHT22;15925;51.222;5.678;2023-08-07T00:42:01;13.80;99.90
28773;DHT22;15925;51.222;5.678;2023-08-07T00:44:27;13.80;99.90
28773;DHT22;15925;51.222;5.678;2023-08-07T00:46:52;13.80;99.90
28773;DHT22;15925;51.222;5.678;2023-08-07T00:49:20;13.80;99.90
28773;DHT22;15925;51.222;5.678;2023-08-07T00:51:46;13.80;99.90
28773;DHT22;15925;51.222;5.678;2023-08-07T00:54:15;13.80;99.90
28773;DHT22;15925;51.222;5.678;2023-08-07T00:56:44;13.80;99.90
28773;DHT22;15925;51.222;5.678;2023-08-07T00:59:10;13.80;99.90
28773;DHT22;15925;51.222;5.678;2023-08-07T01:01:36;13.80;99.90
28773;DHT22;15925;51.222;5.678;2023-08-07T01:04:02;13.80;99.90
28773;DHT22;15925;51.222;5.678;2023-08-07T01:06:28;13.80;99.90
28773;DHT22;15925;51.222;5.678;2023-08-07T01:08:54;13.80;99.90
28773;DHT22;15925;51.222;5.678;2023-08-07T01:16:41;13.80;99.90
28773;DHT22;15925;51.222;5.678;2023-08-07T01:19:23;13.80;99.90
28773;DHT22;15925;51.222;5.678;2023-08-07T01:24:39;13.80;99.90
28773;DHT22;15925;51.222;5.678;2023-08-07T01:27:21;13.70;99.90
28773;DHT22;15925;51.222;5.678;2023-08-07T01:32:43;13.70;99.90
28773;DHT22;15925;51.222;5.678;2023-08-07T01:35:14;13.70;99.90
28773;DHT22;15925;51.222;5.678;2023-08-07T01:37:44;13.70;99.90
28773;DHT22;15925;51.222;5.678;2023-08-07T01:40:12;13.70;99.90
28773;DHT22;15925;51.222;5.678;2023-08-07T01:42:39;13.70;99.90
28773;DHT22;15925;51.222;5.678;2023-08-07T01:45:05;13.70;99.90
28773;DHT22;15925;51.222;5.678;2023-08-07T01:47:31;13.70;99.90
28773;DHT22;15925;51.222;5.678;2023-08-07T01:49:57;13.70;99.90
28773;DHT22;15925;51.222;5.678;2023-08-07T01:52:23;13.70;99.90
28773;DHT22;15925;51.222;5.678;2023-08-07T01:54:49;13.70;99.90
28773;DHT22;15925;51.222;5.678;2023-08-07T01:57:15;13.70;99.90
28773;DHT22;15925;51.222;5.678;2023-08-07T01:59:40;13.70;99.90
28773;DHT22;15925;51.222;5.678;2023-08-07T02:02:06;13.70;99.90
28773;DHT22;15925;51.222;5.678;2023-08-07T02:04:32;13.70;99.90
28773;DHT22;15925;51.222;5.678;2023-08-07T02:06:58;13.70;99.90
28773;DHT22;15925;51.222;5.678;2023-08-07T02:09:24;13.80;99.90
28773;DHT22;15925;51.222;5.678;2023-08-07T02:11:50;13.70;99.90
28773;DHT22;15925;51.222;5.678;2023-08-07T02:14:15;13.70;99.90
28773;DHT22;15925;51.222;5.678;2023-08-07T02:16:41;13.70;99.90
28773;DHT22;15925;51.222;5.678;2023-08-07T02:19:07;13.70;99.90
28773;DHT22;15925;51.222;5.678;2023-08-07T02:21:33;13.70;99.90
28773;DHT22;15925;51.222;5.678;2023-08-07T02:23:59;13.70;99.90
28773;DHT22;15925;51.222;5.678;2023-08-07T02:26:24;13.70;99.90
28773;DHT22;15925;51.222;5.678;2023-08-07T02:28:50;13.70;99.90
28773;DHT22;15925;51.222;5.678;2023-08-07T02:31:16;13.70;99.90
28773;DHT22;15925;51.222;5.678;2023-08-07T02:33:41;13.70;99.90
28773;DHT22;15925;51.222;5.678;2023-08-07T02:36:07;13.60;99.90
28773;DHT22;15925;51.222;5.678;2023-08-07T02:38:34;13.60;99.90
28773;DHT22;15925;51.222;5.678;2023-08-07T02:41:01;13.60;99.90
28773;DHT22;15925;51.222;5.678;2023-08-07T02:43:27;13.70;99.90
28773;DHT22;15925;51.222;5.678;2023-08-07T02:45:54;13.70;99.90
28773;DHT22;15925;51.222;5.678;2023-08-07T02:48:19;13.70;99.90
28773;DHT22;15925;51.222;5.678;2023-08-07T02:50:45;13.70;99.90
28773;DHT22;15925;51.222;5.678;2023-08-07T02:53:11;13.70;99.90
28773;DHT22;15925;51.222;5.678;2023-08-07T02:55:37;13.70;99.90
28773;DHT22;15925;51.222;5.678;2023-08-07T02:58:03;13.70;99.90
28773;DHT22;15925;51.222;5.678;2023-08-07T03:00:29;13.70;99.90
28773;DHT22;15925;51.222;5.678;2023-08-07T03:02:54;13.70;99.90
28773;DHT22;15925;51.222;5.678;2023-08-07T03:05:20;13.70;99.90
28773;DHT22;15925;51.222;5.678;2023-08-07T03:07:46;13.70;99.90
28773;DHT22;15925;51.222;5.678;2023-08-07T03:10:12;13.70;99.90
28773;DHT22;15925;51.222;5.678;2023-08-07T03:12:39;13.80;99.90
28773;DHT22;15925;51.222;5.678;2023-08-07T03:15:05;13.80;99.90
28773;DHT22;15925;51.222;5.678;2023-08-07T03:17:31;13.80;99.90
28773;DHT22;15925;51.222;5.678;2023-08-07T03:19:57;13.70;99.90
28773;DHT22;15925;51.222;5.678;2023-08-07T03:22:23;13.70;99.90
28773;DHT22;15925;51.222;5.678;2023-08-07T03:24:48;13.70;99.90
28773;DHT22;15925;51.222;5.678;2023-08-07T03:27:17;13.70;99.90
28773;DHT22;15925;51.222;5.678;2023-08-07T03:29:43;13.70;99.90
28773;DHT22;15925;51.222;5.678;2023-08-07T03:32:09;13.70;99.90
28773;DHT22;15925;51.222;5.678;2023-08-07T03:34:37;13.70;99.90
28773;DHT22;15925;51.222;5.678;2023-08-07T03:37:04;13.70;99.90
28773;DHT22;15925;51.222;5.678;2023-08-07T03:39:30;13.70;99.90
28773;DHT22;15925;51.222;5.678;2023-08-07T03:41:56;13.70;99.90
28773;DHT22;15925;51.222;5.678;2023-08-07T03:44:24;13.70;99.90
28773;DHT22;15925;51.222;5.678;2023-08-07T03:46:49;13.70;99.90
28773;DHT22;15925;51.222;5.678;2023-08-07T03:49:20;13.70;99.90
28773;DHT22;15925;51.222;5.678;2023-08-07T03:51:45;13.80;99.90
28773;DHT22;15925;51.222;5.678;2023-08-07T03:54:11;13.70;99.90
28773;DHT22;15925;51.222;5.678;2023-08-07T03:56:37;13.70;99.90
28773;DHT22;15925;51.222;5.678;2023-08-07T03:59:04;13.70;99.90
28773;DHT22;15925;51.222;5.678;2023-08-07T04:01:30;13.80;99.90
28773;DHT22;15925;51.222;5.678;2023-08-07T04:03:56;13.70;99.90
28773;DHT22;15925;51.222;5.678;2023-08-07T04:06:21;13.70;99.90
28773;DHT22;15925;51.222;5.678;2023-08-07T04:08:48;13.60;99.90
28773;DHT22;15925;51.222;5.678;2023-08-07T04:11:14;13.60;99.90
28773;DHT22;15925;51.222;5.678;2023-08-07T04:13:39;13.60;99.90
28773;DHT22;15925;51.222;5.678;2023-08-07T04:16:05;13.60;99.90
28773;DHT22;15925;51.222;5.678;2023-08-07T04:18:32;13.60;99.90
28773;DHT22;15925;51.222;5.678;2023-08-07T04:20:59;13.60;99.90
28773;DHT22;15925;51.222;5.678;2023-08-07T04:23:25;13.70;99.90
28773;DHT22;15925;51.222;5.678;2023-08-07T04:25:52;13.60;99.90
28773;DHT22;15925;51.222;5.678;2023-08-07T04:28:18;13.60;99.90
28773;DHT22;15925;51.222;5.678;2023-08-07T04:30:47;13.60;99.90
28773;DHT22;15925;51.222;5.678;2023-08-07T04:33:14;13.50;99.90
28773;DHT22;15925;51.222;5.678;2023-08-07T04:35:40;13.60;99.90
28773;DHT22;15925;51.222;5.678;2023-08-07T04:38:05;13.60;99.90
28773;DHT22;15925;51.222;5.678;2023-08-07T04:40:31;13.50;99.90
28773;DHT22;15925;51.222;5.678;2023-08-07T04:42:57;13.50;99.90
28773;DHT22;15925;51.222;5.678;2023-08-07T04:45:23;13.50;99.90
28773;DHT22;15925;51.222;5.678;2023-08-07T04:47:49;13.60;99.90
28773;DHT22;15925;51.222;5.678;2023-08-07T04:50:14;13.50;99.90
28773;DHT22;15925;51.222;5.678;2023-08-07T04:52:40;13.50;99.90
28773;DHT22;15925;51.222;5.678;2023-08-07T04:55:06;13.50;99.90
28773;DHT22;15925;51.222;5.678;2023-08-07T04:57:32;13.60;99.90
28773;DHT22;15925;51.222;5.678;2023-08-07T04:59:58;13.60;99.90
28773;DHT22;15925;51.222;5.678;2023-08-07T05:02:23;13.60;99.90
28773;DHT22;15925;51.222;5.678;2023-08-07T05:04:49;13.60;99.90
28773;DHT22;15925;51.222;5.678;2023-08-07T05:07:15;13.60;99.90
28773;DHT22;15925;51.222;5.678;2023-08-07T05:09:41;13.60;99.90
28773;DHT22;15925;51.222;5.678;2023-08-07T05:12:07;13.60;99.90
28773;DHT22;15925;51.222;5.678;2023-08-07T05:14:33;13.60;99.90
28773;DHT22;15925;51.222;5.678;2023-08-07T05:16:58;13.60;99.90
28773;DHT22;15925;51.222;5.678;2023-08-07T05:19:27;13.70;99.90
28773;DHT22;15925;51.222;5.678;2023-08-07T05:21:53;13.70;99.90
28773;DHT22;15925;51.222;5.678;2023-08-07T05:24:18;13.60;99.90
28773;DHT22;15925;51.222;5.678;2023-08-07T05:26:45;13.60;99.90
28773;DHT22;15925;51.222;5.678;2023-08-07T05:29:11;13.60;99.90
28773;DHT22;15925;51.222;5.678;2023-08-07T05:31:36;13.50;99.90
28773;DHT22;15925;51.222;5.678;2023-08-07T05:34:03;13.50;99.90
28773;DHT22;15925;51.222;5.678;2023-08-07T05:36:28;13.50;99.90
28773;DHT22;15925;51.222;5.678;2023-08-07T05:38:57;13.60;99.90
28773;DHT22;15925;51.222;5.678;2023-08-07T05:41:23;13.50;99.90
28773;DHT22;15925;51.222;5.678;2023-08-07T05:43:48;13.60;99.90
28773;DHT22;15925;51.222;5.678;2023-08-07T05:46:14;13.60;99.90
28773;DHT22;15925;51.222;5.678;2023-08-07T05:48:40;13.60;99.90
28773;DHT22;15925;51.222;5.678;2023-08-07T05:51:06;13.50;99.90
28773;DHT22;15925;51.222;5.678;2023-08-07T05:53:34;13.60;99.90
28773;DHT22;15925;51.222;5.678;2023-08-07T05:56:00;13.60;99.90
28773;DHT22;15925;51.222;5.678;2023-08-07T05:58:26;13.50;99.90
28773;DHT22;15925;51.222;5.678;2023-08-07T06:00:52;13.50;99.90
28773;DHT22;15925;51.222;5.678;2023-08-07T06:03:17;13.60;99.90
28773;DHT22;15925;51.222;5.678;2023-08-07T06:05:44;13.60;99.90
28773;DHT22;15925;51.222;5.678;2023-08-07T06:08:09;13.60;99.90
28773;DHT22;15925;51.222;5.678;2023-08-07T06:10:35;13.60;99.90
28773;DHT22;15925;51.222;5.678;2023-08-07T06:13:02;13.60;99.90
28773;DHT22;15925;51.222;5.678;2023-08-07T06:15:31;13.60;99.90
28773;DHT22;15925;51.222;5.678;2023-08-07T06:17:57;13.70;99.90
28773;DHT22;15925;51.222;5.678;2023-08-07T06:20:23;13.70;99.90
28773;DHT22;15925;51.222;5.678;2023-08-07T06:22:49;13.70;99.90
28773;DHT22;15925;51.222;5.678;2023-08-07T06:25:15;13.70;99.90
28773;DHT22;15925;51.222;5.678;2023-08-07T06:27:41;13.70;99.90
28773;DHT22;15925;51.222;5.678;2023-08-07T06:30:07;13.80;99.90
28773;DHT22;15925;51.222;5.678;2023-08-07T06:32:33;13.80;99.90
28773;DHT22;15925;51.222;5.678;2023-08-07T06:34:59;13.80;99.90
28773;DHT22;15925;51.222;5.678;2023-08-07T06:37:25;13.90;99.90
28773;DHT22;15925;51.222;5.678;2023-08-07T06:39:50;13.90;99.90
28773;DHT22;15925;51.222;5.678;2023-08-07T06:42:16;13.90;99.90
28773;DHT22;15925;51.222;5.678;2023-08-07T06:44:43;14.00;99.90
28773;DHT22;15925;51.222;5.678;2023-08-07T06:47:09;14.00;99.90
28773;DHT22;15925;51.222;5.678;2023-08-07T06:49:36;14.00;99.90
28773;DHT22;15925;51.222;5.678;2023-08-07T06:52:02;14.00;99.90
28773;DHT22;15925;51.222;5.678;2023-08-07T06:54:28;14.00;99.90
28773;DHT22;15925;51.222;5.678;2023-08-07T06:56:53;14.10;99.90
28773;DHT22;15925;51.222;5.678;2023-08-07T06:59:19;14.10;99.90
28773;DHT22;15925;51.222;5.678;2023-08-07T07:01:46;14.20;99.90
28773;DHT22;15925;51.222;5.678;2023-08-07T07:04:11;14.20;99.90
28773;DHT22;15925;51.222;5.678;2023-08-07T07:06:38;14.20;99.90
28773;DHT22;15925;51.222;5.678;2023-08-07T07:09:04;14.20;99.90
28773;DHT22;15925;51.222;5.678;2023-08-07T07:11:30;14.30;99.90
28773;DHT22;15925;51.222;5.678;2023-08-07T07:13:56;14.30;99.90
28773;DHT22;15925;51.222;5.678;2023-08-07T07:16:21;14.30;99.90
28773;DHT22;15925;51.222;5.678;2023-08-07T07:18:50;14.30;99.90
28773;DHT22;15925;51.222;5.678;2023-08-07T07:21:17;14.40;99.90
28773;DHT22;15925;51.222;5.678;2023-08-07T07:23:43;14.50;99.90
28773;DHT22;15925;51.222;5.678;2023-08-07T07:26:09;14.60;99.90
28773;DHT22;15925;51.222;5.678;2023-08-07T07:28:35;14.70;99.90
28773;DHT22;15925;51.222;5.678;2023-08-07T07:31:01;14.80;99.90
28773;DHT22;15925;51.222;5.678;2023-08-07T07:33:26;14.90;99.90
28773;DHT22;15925;51.222;5.678;2023-08-07T07:35:53;15.00;99.90
28773;DHT22;15925;51.222;5.678;2023-08-07T07:38:19;15.00;99.90
28773;DHT22;15925;51.222;5.678;2023-08-07T07:40:44;15.10;99.90
28773;DHT22;15925;51.222;5.678;2023-08-07T07:43:11;15.20;99.90
28773;DHT22;15925;51.222;5.678;2023-08-07T07:45:36;15.20;99.90
28773;DHT22;15925;51.222;5.678;2023-08-07T07:48:03;15.40;99.90
28773;DHT22;15925;51.222;5.678;2023-08-07T07:50:29;15.60;99.90
28773;DHT22;15925;51.222;5.678;2023-08-07T07:52:55;15.70;99.90
28773;DHT22;15925;51.222;5.678;2023-08-07T07:55:20;15.70;99.90
28773;DHT22;15925;51.222;5.678;2023-08-07T07:57:46;15.70;99.90
28773;DHT22;15925;51.222;5.678;2023-08-07T08:00:13;15.70;99.90
28773;DHT22;15925;51.222;5.678;2023-08-07T08:02:42;15.70;99.90
28773;DHT22;15925;51.222;5.678;2023-08-07T08:05:08;15.70;99.90
28773;DHT22;15925;51.222;5.678;2023-08-07T08:07:37;15.70;99.90
28773;DHT22;15925;51.222;5.678;2023-08-07T08:10:03;15.70;99.90
28773;DHT22;15925;51.222;5.678;2023-08-07T08:12:30;15.80;99.90
28773;DHT22;15925;51.222;5.678;2023-08-07T08:14:56;15.80;99.90
28773;DHT22;15925;51.222;5.678;2023-08-07T08:17:23;15.90;99.90
28773;DHT22;15925;51.222;5.678;2023-08-07T08:19:49;16.00;99.90
28773;DHT22;15925;51.222;5.678;2023-08-07T08:22:15;16.00;99.90
28773;DHT22;15925;51.222;5.678;2023-08-07T08:24:41;16.10;99.90
28773;DHT22;15925;51.222;5.678;2023-08-07T08:27:06;16.10;99.90
28773;DHT22;15925;51.222;5.678;2023-08-07T08:29:32;16.10;99.90
28773;DHT22;15925;51.222;5.678;2023-08-07T08:31:58;16.10;99.90
28773;DHT22;15925;51.222;5.678;2023-08-07T08:34:26;16.20;99.90
28773;DHT22;15925;51.222;5.678;2023-08-07T08:36:52;16.20;99.90
28773;DHT22;15925;51.222;5.678;2023-08-07T08:39:18;16.40;99.90
28773;DHT22;15925;51.222;5.678;2023-08-07T08:41:46;16.40;99.90
28773;DHT22;15925;51.222;5.678;2023-08-07T08:44:14;16.40;99.90
28773;DHT22;15925;51.222;5.678;2023-08-07T08:46:42;16.60;99.90
28773;DHT22;15925;51.222;5.678;2023-08-07T08:49:09;16.70;99.90
28773;DHT22;15925;51.222;5.678;2023-08-07T08:51:36;16.80;99.90
28773;DHT22;15925;51.222;5.678;2023-08-07T08:54:03;16.80;99.90
28773;DHT22;15925;51.222;5.678;2023-08-07T08:56:31;16.90;99.90
28773;DHT22;15925;51.222;5.678;2023-08-07T08:58:58;16.90;99.90
28773;DHT22;15925;51.222;5.678;2023-08-07T09:01:24;17.00;99.90
28773;DHT22;15925;51.222;5.678;2023-08-07T09:03:50;17.00;99.90
28773;DHT22;15925;51.222;5.678;2023-08-07T09:06:18;17.10;99.90
28773;DHT22;15925;51.222;5.678;2023-08-07T09:08:45;17.00;99.90
28773;DHT22;15925;51.222;5.678;2023-08-07T09:11:12;16.80;99.90
28773;DHT22;15925;51.222;5.678;2023-08-07T09:13:40;16.70;99.90
28773;DHT22;15925;51.222;5.678;2023-08-07T09:16:08;16.60;99.90
28773;DHT22;15925;51.222;5.678;2023-08-07T09:18:34;16.60;99.90
28773;DHT22;15925;51.222;5.678;2023-08-07T09:21:01;16.50;99.90
28773;DHT22;15925;51.222;5.678;2023-08-07T09:23:27;16.60;99.90
28773;DHT22;15925;51.222;5.678;2023-08-07T09:26:00;16.70;99.90
28773;DHT22;15925;51.222;5.678;2023-08-07T09:28:26;16.90;99.90
28773;DHT22;15925;51.222;5.678;2023-08-07T09:30:53;17.10;99.90
28773;DHT22;15925;51.222;5.678;2023-08-07T09:33:24;17.20;99.90
28773;DHT22;15925;51.222;5.678;2023-08-07T09:35:51;17.20;99.90
28773;DHT22;15925;51.222;5.678;2023-08-07T09:38:17;17.10;99.90
28773;DHT22;15925;51.222;5.678;2023-08-07T09:40:43;17.00;99.90
28773;DHT22;15925;51.222;5.678;2023-08-07T09:43:09;16.90;99.90
28773;DHT22;15925;51.222;5.678;2023-08-07T09:45:37;16.80;99.90
28773;DHT22;15925;51.222;5.678;2023-08-07T09:48:06;16.70;99.90
28773;DHT22;15925;51.222;5.678;2023-08-07T09:50:32;16.70;99.90
28773;DHT22;15925;51.222;5.678;2023-08-07T09:52:58;16.70;99.90
28773;DHT22;15925;51.222;5.678;2023-08-07T09:55:25;16.90;99.90
28773;DHT22;15925;51.222;5.678;2023-08-07T09:57:51;17.10;99.90
28773;DHT22;15925;51.222;5.678;2023-08-07T10:00:18;17.20;99.90
28773;DHT22;15925;51.222;5.678;2023-08-07T10:02:50;17.40;99.90
28773;DHT22;15925;51.222;5.678;2023-08-07T10:05:17;17.30;99.90
28773;DHT22;15925;51.222;5.678;2023-08-07T10:07:43;17.20;99.90
28773;DHT22;15925;51.222;5.678;2023-08-07T10:10:09;17.40;99.90
28773;DHT22;15925;51.222;5.678;2023-08-07T10:12:36;17.60;99.90
28773;DHT22;15925;51.222;5.678;2023-08-07T10:15:03;17.60;99.90
28773;DHT22;15925;51.222;5.678;2023-08-07T10:17:29;17.50;99.90
28773;DHT22;15925;51.222;5.678;2023-08-07T10:19:56;17.60;99.90
28773;DHT22;15925;51.222;5.678;2023-08-07T10:22:28;17.70;99.90
28773;DHT22;15925;51.222;5.678;2023-08-07T10:24:57;17.90;99.90
28773;DHT22;15925;51.222;5.678;2023-08-07T10:27:25;18.00;99.90
28773;DHT22;15925;51.222;5.678;2023-08-07T10:29:53;18.10;99.90
28773;DHT22;15925;51.222;5.678;2023-08-07T10:32:20;18.10;99.90
28773;DHT22;15925;51.222;5.678;2023-08-07T10:34:49;18.20;99.90
28773;DHT22;15925;51.222;5.678;2023-08-07T10:37:41;18.30;99.90
28773;DHT22;15925;51.222;5.678;2023-08-07T10:40:08;18.40;99.90
28773;DHT22;15925;51.222;5.678;2023-08-07T10:45:20;18.60;99.90
28773;DHT22;15925;51.222;5.678;2023-08-07T10:47:57;18.70;99.90
28773;DHT22;15925;51.222;5.678;2023-08-07T10:50:33;18.90;99.90
28773;DHT22;15925;51.222;5.678;2023-08-07T10:53:01;18.80;99.90
28773;DHT22;15925;51.222;5.678;2023-08-07T10:55:31;18.70;99.90
28773;DHT22;15925;51.222;5.678;2023-08-07T10:57:58;18.60;99.90
28773;DHT22;15925;51.222;5.678;2023-08-07T11:00:27;18.30;99.90
28773;DHT22;15925;51.222;5.678;2023-08-07T11:02:53;18.10;99.90
28773;DHT22;15925;51.222;5.678;2023-08-07T11:05:19;18.20;99.90
28773;DHT22;15925;51.222;5.678;2023-08-07T11:07:45;18.10;99.90
28773;DHT22;15925;51.222;5.678;2023-08-07T11:10:13;18.00;99.90
28773;DHT22;15925;51.222;5.678;2023-08-07T11:12:40;18.00;99.90
28773;DHT22;15925;51.222;5.678;2023-08-07T11:15:06;18.10;99.90
28773;DHT22;15925;51.222;5.678;2023-08-07T11:17:32;18.10;99.90
28773;DHT22;15925;51.222;5.678;2023-08-07T11:19:58;17.90;99.90
28773;DHT22;15925;51.222;5.678;2023-08-07T11:22:24;17.90;99.90
28773;DHT22;15925;51.222;5.678;2023-08-07T11:24:51;17.90;99.90
28773;DHT22;15925;51.222;5.678;2023-08-07T11:27:17;18.00;99.90
28773;DHT22;15925;51.222;5.678;2023-08-07T11:29:47;18.10;99.90
28773;DHT22;15925;51.222;5.678;2023-08-07T11:32:14;18.20;99.90
28773;DHT22;15925;51.222;5.678;2023-08-07T11:34:39;18.30;99.90
28773;DHT22;15925;51.222;5.678;2023-08-07T11:37:05;18.40;99.90
28773;DHT22;15925;51.222;5.678;2023-08-07T11:39:31;18.60;99.90
28773;DHT22;15925;51.222;5.678;2023-08-07T11:41:57;18.70;99.90
28773;DHT22;15925;51.222;5.678;2023-08-07T11:44:23;18.60;99.90
28773;DHT22;15925;51.222;5.678;2023-08-07T11:46:50;18.70;99.90
28773;DHT22;15925;51.222;5.678;2023-08-07T11:49:16;18.70;99.90
28773;DHT22;15925;51.222;5.678;2023-08-07T11:51:43;18.80;99.90
28773;DHT22;15925;51.222;5.678;2023-08-07T11:54:15;19.00;99.90
28773;DHT22;15925;51.222;5.678;2023-08-07T11:56:42;19.00;99.90
28773;DHT22;15925;51.222;5.678;2023-08-07T11:59:08;18.80;99.90
28773;DHT22;15925;51.222;5.678;2023-08-07T12:01:38;18.70;99.90
28773;DHT22;15925;51.222;5.678;2023-08-07T12:06:31;18.60;99.90
28773;DHT22;15925;51.222;5.678;2023-08-07T12:08:57;18.80;99.90
28773;DHT22;15925;51.222;5.678;2023-08-07T12:11:23;18.90;99.90
28773;DHT22;15925;51.222;5.678;2023-08-07T12:13:50;19.00;99.90
28773;DHT22;15925;51.222;5.678;2023-08-07T12:16:16;19.00;99.90
28773;DHT22;15925;51.222;5.678;2023-08-07T12:18:52;19.00;99.90
28773;DHT22;15925;51.222;5.678;2023-08-07T12:21:20;19.00;99.90
28773;DHT22;15925;51.222;5.678;2023-08-07T12:23:49;19.00;99.90
28773;DHT22;15925;51.222;5.678;2023-08-07T12:26:15;19.00;99.90
28773;DHT22;15925;51.222;5.678;2023-08-07T12:28:41;19.20;99.90
28773;DHT22;15925;51.222;5.678;2023-08-07T12:31:07;19.30;99.90
28773;DHT22;15925;51.222;5.678;2023-08-07T12:33:33;19.20;99.90
28773;DHT22;15925;51.222;5.678;2023-08-07T12:35:59;19.20;99.90
28773;DHT22;15925;51.222;5.678;2023-08-07T12:38:26;19.10;99.90
28773;DHT22;15925;51.222;5.678;2023-08-07T12:40:53;18.90;99.90
28773;DHT22;15925;51.222;5.678;2023-08-07T12:43:19;19.00;99.90
28773;DHT22;15925;51.222;5.678;2023-08-07T12:45:45;19.00;99.90
28773;DHT22;15925;51.222;5.678;2023-08-07T12:48:11;18.90;99.90
28773;DHT22;15925;51.222;5.678;2023-08-07T12:50:37;19.00;99.90
28773;DHT22;15925;51.222;5.678;2023-08-07T12:53:03;19.20;99.90
28773;DHT22;15925;51.222;5.678;2023-08-07T12:55:29;19.30;99.90
28773;DHT22;15925;51.222;5.678;2023-08-07T12:57:56;19.30;99.90
28773;DHT22;15925;51.222;5.678;2023-08-07T13:00:22;19.50;99.90
28773;DHT22;15925;51.222;5.678;2023-08-07T13:02:49;19.40;99.90
28773;DHT22;15925;51.222;5.678;2023-08-07T13:05:16;19.50;99.90
28773;DHT22;15925;51.222;5.678;2023-08-07T13:07:42;19.40;99.90
28773;DHT22;15925;51.222;5.678;2023-08-07T13:10:10;19.50;99.90
28773;DHT22;15925;51.222;5.678;2023-08-07T13:12:39;19.50;99.90
28773;DHT22;15925;51.222;5.678;2023-08-07T13:15:07;19.50;99.90
28773;DHT22;15925;51.222;5.678;2023-08-07T13:17:38;19.60;99.90
28773;DHT22;15925;51.222;5.678;2023-08-07T13:20:05;19.70;99.90
28773;DHT22;15925;51.222;5.678;2023-08-07T13:22:35;19.50;99.90
28773;DHT22;15925;51.222;5.678;2023-08-07T13:25:01;19.30;99.90
28773;DHT22;15925;51.222;5.678;2023-08-07T13:27:29;19.50;99.90
28773;DHT22;15925;51.222;5.678;2023-08-07T13:29:55;19.70;99.90
28773;DHT22;15925;51.222;5.678;2023-08-07T13:32:21;19.70;99.90
28773;DHT22;15925;51.222;5.678;2023-08-07T13:34:47;19.50;99.90
28773;DHT22;15925;51.222;5.678;2023-08-07T13:37:14;19.50;99.90
28773;DHT22;15925;51.222;5.678;2023-08-07T13:39:40;19.30;99.90
28773;DHT22;15925;51.222;5.678;2023-08-07T13:42:07;19.30;99.90
28773;DHT22;15925;51.222;5.678;2023-08-07T13:44:33;19.30;99.90
28773;DHT22;15925;51.222;5.678;2023-08-07T13:46:59;19.50;99.90
28773;DHT22;15925;51.222;5.678;2023-08-07T13:49:24;19.60;99.90
28773;DHT22;15925;51.222;5.678;2023-08-07T13:51:50;19.70;99.90
28773;DHT22;15925;51.222;5.678;2023-08-07T13:54:16;19.60;99.90
28773;DHT22;15925;51.222;5.678;2023-08-07T13:56:42;19.90;99.90
28773;DHT22;15925;51.222;5.678;2023-08-07T13:59:08;20.00;99.90
28773;DHT22;15925;51.222;5.678;2023-08-07T14:01:35;19.90;99.90
28773;DHT22;15925;51.222;5.678;2023-08-07T14:04:01;19.70;99.90
28773;DHT22;15925;51.222;5.678;2023-08-07T14:06:27;19.60;99.90
28773;DHT22;15925;51.222;5.678;2023-08-07T14:08:53;19.60;99.90
28773;DHT22;15925;51.222;5.678;2023-08-07T14:11:19;19.80;99.90
28773;DHT22;15925;51.222;5.678;2023-08-07T14:13:46;19.80;99.90
28773;DHT22;15925;51.222;5.678;2023-08-07T14:16:13;19.70;99.90
28773;DHT22;15925;51.222;5.678;2023-08-07T14:18:39;19.60;99.90
28773;DHT22;15925;51.222;5.678;2023-08-07T14:21:05;19.60;99.90
28773;DHT22;15925;51.222;5.678;2023-08-07T14:23:31;19.60;99.90
28773;DHT22;15925;51.222;5.678;2023-08-07T14:25:57;19.60;99.90
28773;DHT22;15925;51.222;5.678;2023-08-07T14:28:22;19.40;99.90
28773;DHT22;15925;51.222;5.678;2023-08-07T14:30:48;19.30;99.90
28773;DHT22;15925;51.222;5.678;2023-08-07T14:33:14;19.30;99.90
28773;DHT22;15925;51.222;5.678;2023-08-07T14:35:40;19.20;99.90
28773;DHT22;15925;51.222;5.678;2023-08-07T14:38:06;19.10;99.90
28773;DHT22;15925;51.222;5.678;2023-08-07T14:40:32;19.10;99.90
28773;DHT22;15925;51.222;5.678;2023-08-07T14:42:58;19.00;99.90
28773;DHT22;15925;51.222;5.678;2023-08-07T14:45:24;19.10;99.90
28773;DHT22;15925;51.222;5.678;2023-08-07T14:47:50;19.10;99.90
28773;DHT22;15925;51.222;5.678;2023-08-07T14:50:16;19.10;99.90
28773;DHT22;15925;51.222;5.678;2023-08-07T14:52:42;19.20;99.90
28773;DHT22;15925;51.222;5.678;2023-08-07T14:55:08;19.30;99.90
28773;DHT22;15925;51.222;5.678;2023-08-07T14:57:34;19.40;99.90
28773;DHT22;15925;51.222;5.678;2023-08-07T15:00:00;19.40;99.90
28773;DHT22;15925;51.222;5.678;2023-08-07T15:02:26;19.30;99.90
28773;DHT22;15925;51.222;5.678;2023-08-07T15:04:52;19.30;99.90
28773;DHT22;15925;51.222;5.678;2023-08-07T15:07:18;19.30;99.90
28773;DHT22;15925;51.222;5.678;2023-08-07T15:09:43;19.30;99.90
28773;DHT22;15925;51.222;5.678;2023-08-07T15:12:10;19.40;99.90
28773;DHT22;15925;51.222;5.678;2023-08-07T15:14:36;19.40;99.90
28773;DHT22;15925;51.222;5.678;2023-08-07T15:17:02;19.30;99.90
28773;DHT22;15925;51.222;5.678;2023-08-07T15:19:27;19.20;99.90
28773;DHT22;15925;51.222;5.678;2023-08-07T15:21:53;19.20;99.90
28773;DHT22;15925;51.222;5.678;2023-08-07T15:24:19;19.30;99.90
28773;DHT22;15925;51.222;5.678;2023-08-07T15:26:45;19.30;99.90
28773;DHT22;15925;51.222;5.678;2023-08-07T15:29:11;19.30;99.90
28773;DHT22;15925;51.222;5.678;2023-08-07T15:31:38;19.40;99.90
28773;DHT22;15925;51.222;5.678;2023-08-07T15:34:04;19.30;99.90
28773;DHT22;15925;51.222;5.678;2023-08-07T15:36:29;19.40;99.90
28773;DHT22;15925;51.222;5.678;2023-08-07T15:38:55;19.40;99.90
28773;DHT22;15925;51.222;5.678;2023-08-07T15:41:22;19.50;99.90